sensor_id;sensor_type;location;lat;lon;timestamp;temperature;humidity
47861;HTU21D;33620;52.340;5.984;2024-01-30T00:01:36;5.80;93.58
47861;HTU21D;33620;52.340;5.984;2024-01-30T00:04:02;5.82;93.53
47861;HTU21D;33620;52.340;5.984;2024-01-30T00:06:27;5.79;93.66
47861;HTU21D;33620;52.340;5.984;2024-01-30T00:08:53;5.77;93.66
47861;HTU21D;33620;52.340;5.984;2024-01-30T00:11:18;5.77;93.72
47861;HTU21D;33620;52.340;5.984;2024-01-30T00:13:44;5.72;93.62
47861;HTU21D;33620;52.340;5.984;2024-01-30T00:16:20;5.75;93.59
47861;HTU21D;33620;52.340;5.984;2024-01-30T00:18:45;5.72;93.33
47861;HTU21D;33620;52.340;5.984;2024-01-30T00:21:11;5.70;93.24
47861;HTU21D;33620;52.340;5.984;2024-01-30T00:23:36;5.69;93.13
47861;HTU21D;33620;52.340;5.984;2024-01-30T00:26:01;5.66;92.92
47861;HTU21D;33620;52.340;5.984;2024-01-30T00:28:27;5.65;93.00
47861;HTU21D;33620;52.340;5.984;2024-01-30T00:30:53;5.65;92.98
47861;HTU21D;33620;52.340;5.984;2024-01-30T00:33:18;5.65;92.95
47861;HTU21D;33620;52.340;5.984;2024-01-30T00:35:43;5.63;92.88
47861;HTU21D;33620;52.340;5.984;2024-01-30T00:38:09;5.62;92.74
47861;HTU21D;33620;52.340;5.984;2024-01-30T00:40:34;5.61;92.80
47861;HTU21D;33620;52.340;5.984;2024-01-30T00:42:59;5.61;92.72
47861;HTU21D;33620;52.340;5.984;2024-01-30T00:45:25;5.57;92.67
47861;HTU21D;33620;52.340;5.984;2024-01-30T00:47:50;5.55;92.37
47861;HTU21D;33620;52.340;5.984;2024-01-30T00:50:16;5.53;92.53
47861;HTU21D;33620;52.340;5.984;2024-01-30T00:52:41;5.51;92.40
47861;HTU21D;33620;52.340;5.984;2024-01-30T00:55:10;5.49;92.46
47861;HTU21D;33620;52.340;5.984;2024-01-30T00:57:35;5.50;92.50
47861;HTU21D;33620;52.340;5.984;2024-01-30T01:00:00;5.47;92.24
47861;HTU21D;33620;52.340;5.984;2024-01-30T01:02:26;5.43;92.50
47861;HTU21D;33620;52.340;5.984;2024-01-30T01:04:51;5.40;92.24
47861;HTU21D;33620;52.340;5.984;2024-01-30T01:07:16;5.38;92.27
47861;HTU21D;33620;52.340;5.984;2024-01-30T01:09:42;5.36;92.31
47861;HTU21D;33620;52.340;5.984;2024-01-30T01:12:07;5.36;92.29
47861;HTU21D;33620;52.340;5.984;2024-01-30T01:14:32;5.37;92.43
47861;HTU21D;33620;52.340;5.984;2024-01-30T01:16:58;5.35;92.32
47861;HTU21D;33620;52.340;5.984;2024-01-30T01:19:23;5.35;92.54
47861;HTU21D;33620;52.340;5.984;2024-01-30T01:21:48;5.35;92.61
47861;HTU21D;33620;52.340;5.984;2024-01-30T01:24:14;5.34;92.47
47861;HTU21D;33620;52.340;5.984;2024-01-30T01:26:39;5.32;92.59
47861;HTU21D;33620;52.340;5.984;2024-01-30T01:29:06;5.32;92.66
47861;HTU21D;33620;52.340;5.984;2024-01-30T01:31:39;5.27;92.70
47861;HTU21D;33620;52.340;5.984;2024-01-30T01:34:12;5.25;92.93
47861;HTU21D;33620;52.340;5.984;2024-01-30T01:36:38;5.26;92.97
47861;HTU21D;33620;52.340;5.984;2024-01-30T01:39:03;5.24;92.88
47861;HTU21D;33620;52.340;5.984;2024-01-30T01:41:32;5.24;92.98
47861;HTU21D;33620;52.340;5.984;2024-01-30T01:43:58;5.22;92.70
47861;HTU21D;33620;52.340;5.984;2024-01-30T01:46:27;5.16;92.62
47861;HTU21D;33620;52.340;5.984;2024-01-30T01:48:53;5.16;92.82
47861;HTU21D;33620;52.340;5.984;2024-01-30T01:51:19;5.19;93.27
47861;HTU21D;33620;52.340;5.984;2024-01-30T01:53:44;5.22;93.41
47861;HTU21D;33620;52.340;5.984;2024-01-30T01:56:10;5.22;93.66
47861;HTU21D;33620;52.340;5.984;2024-01-30T01:58:36;5.24;93.96
47861;HTU21D;33620;52.340;5.984;2024-01-30T02:01:04;5.28;94.31
47861;HTU21D;33620;52.340;5.984;2024-01-30T02:03:30;5.31;94.43
47861;HTU21D;33620;52.340;5.984;2024-01-30T02:05:56;5.32;94.25
47861;HTU21D;33620;52.340;5.984;2024-01-30T02:08:22;5.31;94.34
47861;HTU21D;33620;52.340;5.984;2024-01-30T02:10:47;5.31;94.32
47861;HTU21D;33620;52.340;5.984;2024-01-30T02:13:13;5.32;94.49
47861;HTU21D;33620;52.340;5.984;2024-01-30T02:15:38;5.32;94.75
47861;HTU21D;33620;52.340;5.984;2024-01-30T02:18:04;5.33;94.94
47861;HTU21D;33620;52.340;5.984;2024-01-30T02:20:30;5.35;95.00
47861;HTU21D;33620;52.340;5.984;2024-01-30T02:22:58;5.35;95.10
47861;HTU21D;33620;52.340;5.984;2024-01-30T02:25:42;5.36;95.33
47861;HTU21D;33620;52.340;5.984;2024-01-30T02:28:11;5.38;95.38
47861;HTU21D;33620;52.340;5.984;2024-01-30T02:30:37;5.35;95.49
47861;HTU21D;33620;52.340;5.984;2024-01-30T02:33:03;5.37;95.58
47861;HTU21D;33620;52.340;5.984;2024-01-30T02:35:28;5.38;95.72
47861;HTU21D;33620;52.340;5.984;2024-01-30T02:37:54;5.40;95.69
47861;HTU21D;33620;52.340;5.984;2024-01-30T02:40:19;5.37;95.61
47861;HTU21D;33620;52.340;5.984;2024-01-30T02:42:44;5.34;95.49
47861;HTU21D;33620;52.340;5.984;2024-01-30T02:45:10;5.32;95.46
47861;HTU21D;33620;52.340;5.984;2024-01-30T02:47:36;5.31;95.34
47861;HTU21D;33620;52.340;5.984;2024-01-30T02:50:01;5.30;95.29
47861;HTU21D;33620;52.340;5.984;2024-01-30T02:52:27;5.27;95.11
47861;HTU21D;33620;52.340;5.984;2024-01-30T02:54:52;5.24;95.14
47861;HTU21D;33620;52.340;5.984;2024-01-30T02:57:17;5.25;95.24
47861;HTU21D;33620;52.340;5.984;2024-01-30T02:59:43;5.27;95.25
47861;HTU21D;33620;52.340;5.984;2024-01-30T03:02:08;5.27;95.18
47861;HTU21D;33620;52.340;5.984;2024-01-30T03:04:33;5.26;95.17
47861;HTU21D;33620;52.340;5.984;2024-01-30T03:06:59;5.26;95.26
47861;HTU21D;33620;52.340;5.984;2024-01-30T03:09:24;5.28;95.35
47861;HTU21D;33620;52.340;5.984;2024-01-30T03:11:49;5.30;95.37
47861;HTU21D;33620;52.340;5.984;2024-01-30T03:14:15;5.30;95.35
47861;HTU21D;33620;52.340;5.984;2024-01-30T03:16:41;5.32;95.30
47861;HTU21D;33620;52.340;5.984;2024-01-30T03:19:06;5.30;95.06
47861;HTU21D;33620;52.340;5.984;2024-01-30T03:21:35;5.30;95.04
47861;HTU21D;33620;52.340;5.984;2024-01-30T03:24:00;5.31;94.97
47861;HTU21D;33620;52.340;5.984;2024-01-30T03:26:25;5.30;94.87
47861;HTU21D;33620;52.340;5.984;2024-01-30T03:28:51;5.31;94.83
47861;HTU21D;33620;52.340;5.984;2024-01-30T03:31:16;5.33;94.68
47861;HTU21D;33620;52.340;5.984;2024-01-30T03:33:42;5.27;94.61
47861;HTU21D;33620;52.340;5.984;2024-01-30T03:36:08;5.28;94.73
47861;HTU21D;33620;52.340;5.984;2024-01-30T03:38:34;5.30;94.62
47861;HTU21D;33620;52.340;5.984;2024-01-30T03:40:59;5.26;94.65
47861;HTU21D;33620;52.340;5.984;2024-01-30T03:43:25;5.28;95.10
47861;HTU21D;33620;52.340;5.984;2024-01-30T03:45:50;5.30;95.04
47861;HTU21D;33620;52.340;5.984;2024-01-30T03:48:16;5.33;95.52
47861;HTU21D;33620;52.340;5.984;2024-01-30T03:50:41;5.36;95.82
47861;HTU21D;33620;52.340;5.984;2024-01-30T03:53:07;5.43;96.09
47861;HTU21D;33620;52.340;5.984;2024-01-30T03:55:32;5.48;96.13
47861;HTU21D;33620;52.340;5.984;2024-01-30T03:57:57;5.51;96.33
47861;HTU21D;33620;52.340;5.984;2024-01-30T04:00:23;5.53;96.40
47861;HTU21D;33620;52.340;5.984;2024-01-30T04:02:48;5.54;96.49
47861;HTU21D;33620;52.340;5.984;2024-01-30T04:05:14;5.56;96.63
47861;HTU21D;33620;52.340;5.984;2024-01-30T04:07:39;5.59;96.72
47861;HTU21D;33620;52.340;5.984;2024-01-30T04:10:05;5.61;96.83
47861;HTU21D;33620;52.340;5.984;2024-01-30T04:12:31;5.64;96.87
47861;HTU21D;33620;52.340;5.984;2024-01-30T04:14:57;5.64;96.91
47861;HTU21D;33620;52.340;5.984;2024-01-30T04:17:22;5.63;96.92
47861;HTU21D;33620;52.340;5.984;2024-01-30T04:19:47;5.64;96.94
47861;HTU21D;33620;52.340;5.984;2024-01-30T04:22:13;5.64;96.88
47861;HTU21D;33620;52.340;5.984;2024-01-30T04:24:38;5.63;96.97
47861;HTU21D;33620;52.340;5.984;2024-01-30T04:27:04;5.63;97.00
47861;HTU21D;33620;52.340;5.984;2024-01-30T04:29:29;5.64;97.13
47861;HTU21D;33620;52.340;5.984;2024-01-30T04:31:54;5.63;97.23
47861;HTU21D;33620;52.340;5.984;2024-01-30T04:34:20;5.64;97.22
47861;HTU21D;33620;52.340;5.984;2024-01-30T04:36:45;5.65;97.34
47861;HTU21D;33620;52.340;5.984;2024-01-30T04:39:11;5.67;97.38
47861;HTU21D;33620;52.340;5.984;2024-01-30T04:41:37;5.69;97.49
47861;HTU21D;33620;52.340;5.984;2024-01-30T04:44:03;5.69;97.52
47861;HTU21D;33620;52.340;5.984;2024-01-30T04:46:28;5.70;97.56
47861;HTU21D;33620;52.340;5.984;2024-01-30T04:48:54;5.74;97.77
47861;HTU21D;33620;52.340;5.984;2024-01-30T04:51:19;5.76;97.81
47861;HTU21D;33620;52.340;5.984;2024-01-30T04:53:45;5.74;97.72
47861;HTU21D;33620;52.340;5.984;2024-01-30T04:56:10;5.77;97.78
47861;HTU21D;33620;52.340;5.984;2024-01-30T04:58:36;5.80;97.87
47861;HTU21D;33620;52.340;5.984;2024-01-30T05:01:02;5.82;97.94
47861;HTU21D;33620;52.340;5.984;2024-01-30T05:03:27;5.83;97.99
47861;HTU21D;33620;52.340;5.984;2024-01-30T05:05:53;5.85;98.05
47861;HTU21D;33620;52.340;5.984;2024-01-30T05:08:18;5.90;98.10
47861;HTU21D;33620;52.340;5.984;2024-01-30T05:10:43;5.91;98.09
47861;HTU21D;33620;52.340;5.984;2024-01-30T05:13:09;5.92;98.01
47861;HTU21D;33620;52.340;5.984;2024-01-30T05:15:35;5.91;97.99
47861;HTU21D;33620;52.340;5.984;2024-01-30T05:18:00;5.93;98.10
47861;HTU21D;33620;52.340;5.984;2024-01-30T05:20:26;5.93;98.15
47861;HTU21D;33620;52.340;5.984;2024-01-30T05:22:53;5.95;98.25
47861;HTU21D;33620;52.340;5.984;2024-01-30T05:25:18;5.97;98.23
47861;HTU21D;33620;52.340;5.984;2024-01-30T05:27:44;5.97;98.28
47861;HTU21D;33620;52.340;5.984;2024-01-30T05:30:12;5.98;98.23
47861;HTU21D;33620;52.340;5.984;2024-01-30T05:32:38;5.99;98.39
47861;HTU21D;33620;52.340;5.984;2024-01-30T05:35:03;6.01;98.50
47861;HTU21D;33620;52.340;5.984;2024-01-30T05:37:29;6.05;98.50
47861;HTU21D;33620;52.340;5.984;2024-01-30T05:39:54;6.06;98.43
47861;HTU21D;33620;52.340;5.984;2024-01-30T05:42:20;6.07;98.42
47861;HTU21D;33620;52.340;5.984;2024-01-30T05:44:45;6.06;98.46
47861;HTU21D;33620;52.340;5.984;2024-01-30T05:47:10;6.07;98.41
47861;HTU21D;33620;52.340;5.984;2024-01-30T05:49:36;6.08;98.46
47861;HTU21D;33620;52.340;5.984;2024-01-30T05:52:03;6.09;98.49
47861;HTU21D;33620;52.340;5.984;2024-01-30T05:54:29;6.11;98.57
47861;HTU21D;33620;52.340;5.984;2024-01-30T05:56:54;6.14;98.57
47861;HTU21D;33620;52.340;5.984;2024-01-30T05:59:19;6.14;98.50
47861;HTU21D;33620;52.340;5.984;2024-01-30T06:01:46;6.15;98.49
47861;HTU21D;33620;52.340;5.984;2024-01-30T06:04:12;6.16;98.49
47861;HTU21D;33620;52.340;5.984;2024-01-30T06:06:37;6.17;98.48
47861;HTU21D;33620;52.340;5.984;2024-01-30T06:09:02;6.15;98.25
47861;HTU21D;33620;52.340;5.984;2024-01-30T06:11:28;6.14;98.31
47861;HTU21D;33620;52.340;5.984;2024-01-30T06:13:53;6.14;98.41
47861;HTU21D;33620;52.340;5.984;2024-01-30T06:16:18;6.15;98.52
47861;HTU21D;33620;52.340;5.984;2024-01-30T06:18:46;6.16;98.55
47861;HTU21D;33620;52.340;5.984;2024-01-30T06:21:12;6.17;98.49
47861;HTU21D;33620;52.340;5.984;2024-01-30T06:23:37;6.21;98.52
47861;HTU21D;33620;52.340;5.984;2024-01-30T06:26:02;6.20;98.59
47861;HTU21D;33620;52.340;5.984;2024-01-30T06:28:28;6.21;98.59
47861;HTU21D;33620;52.340;5.984;2024-01-30T06:30:53;6.21;98.57
47861;HTU21D;33620;52.340;5.984;2024-01-30T06:33:19;6.19;98.57
47861;HTU21D;33620;52.340;5.984;2024-01-30T06:35:44;6.21;98.59
47861;HTU21D;33620;52.340;5.984;2024-01-30T06:38:11;6.22;98.64
47861;HTU21D;33620;52.340;5.984;2024-01-30T06:40:36;6.23;98.83
47861;HTU21D;33620;52.340;5.984;2024-01-30T06:43:02;6.26;98.95
47861;HTU21D;33620;52.340;5.984;2024-01-30T06:45:28;6.30;99.09
47861;HTU21D;33620;52.340;5.984;2024-01-30T06:47:53;6.35;99.10
47861;HTU21D;33620;52.340;5.984;2024-01-30T06:50:18;6.36;99.13
47861;HTU21D;33620;52.340;5.984;2024-01-30T06:52:44;6.40;99.19
47861;HTU21D;33620;52.340;5.984;2024-01-30T06:55:09;6.43;99.30
47861;HTU21D;33620;52.340;5.984;2024-01-30T06:57:34;6.44;99.23
47861;HTU21D;33620;52.340;5.984;2024-01-30T07:00:00;6.49;99.26
47861;HTU21D;33620;52.340;5.984;2024-01-30T07:02:25;6.51;99.32
47861;HTU21D;33620;52.340;5.984;2024-01-30T07:04:51;6.53;99.38
47861;HTU21D;33620;52.340;5.984;2024-01-30T07:07:16;6.54;99.39
47861;HTU21D;33620;52.340;5.984;2024-01-30T07:09:42;6.56;99.36
47861;HTU21D;33620;52.340;5.984;2024-01-30T07:12:07;6.59;99.56
47861;HTU21D;33620;52.340;5.984;2024-01-30T07:14:33;6.61;99.70
47861;HTU21D;33620;52.340;5.984;2024-01-30T07:16:58;6.69;99.72
47861;HTU21D;33620;52.340;5.984;2024-01-30T07:19:24;6.71;99.83
47861;HTU21D;33620;52.340;5.984;2024-01-30T07:21:49;6.75;99.80
47861;HTU21D;33620;52.340;5.984;2024-01-30T07:24:14;6.76;99.74
47861;HTU21D;33620;52.340;5.984;2024-01-30T07:26:40;6.80;99.87
47861;HTU21D;33620;52.340;5.984;2024-01-30T07:29:06;6.84;99.93
47861;HTU21D;33620;52.340;5.984;2024-01-30T07:31:31;6.86;99.86
47861;HTU21D;33620;52.340;5.984;2024-01-30T07:33:57;6.89;99.96
47861;HTU21D;33620;52.340;5.984;2024-01-30T07:36:22;6.93;99.99
47861;HTU21D;33620;52.340;5.984;2024-01-30T07:38:47;6.95;99.96
47861;HTU21D;33620;52.340;5.984;2024-01-30T07:41:13;6.97;100.00
47861;HTU21D;33620;52.340;5.984;2024-01-30T07:43:39;7.00;99.95
47861;HTU21D;33620;52.340;5.984;2024-01-30T07:46:04;6.99;99.81
47861;HTU21D;33620;52.340;5.984;2024-01-30T07:48:32;7.02;100.03
47861;HTU21D;33620;52.340;5.984;2024-01-30T07:50:59;7.05;100.09
47861;HTU21D;33620;52.340;5.984;2024-01-30T07:53:24;7.12;100.28
47861;HTU21D;33620;52.340;5.984;2024-01-30T07:55:50;7.16;100.22
47861;HTU21D;33620;52.340;5.984;2024-01-30T07:58:15;7.22;100.52
47861;HTU21D;33620;52.340;5.984;2024-01-30T08:00:40;7.33;100.67
47861;HTU21D;33620;52.340;5.984;2024-01-30T08:03:06;7.41;100.59
47861;HTU21D;33620;52.340;5.984;2024-01-30T08:05:31;7.56;101.04
47861;HTU21D;33620;52.340;5.984;2024-01-30T08:07:57;7.62;100.64
47861;HTU21D;33620;52.340;5.984;2024-01-30T08:10:22;7.68;100.64
47861;HTU21D;33620;52.340;5.984;2024-01-30T08:12:48;7.71;100.58
47861;HTU21D;33620;52.340;5.984;2024-01-30T08:15:13;7.78;100.45
47861;HTU21D;33620;52.340;5.984;2024-01-30T08:17:39;7.87;100.39
47861;HTU21D;33620;52.340;5.984;2024-01-30T08:20:05;7.94;100.29
47861;HTU21D;33620;52.340;5.984;2024-01-30T08:22:31;8.01;100.22
47861;HTU21D;33620;52.340;5.984;2024-01-30T08:24:56;8.08;100.14
47861;HTU21D;33620;52.340;5.984;2024-01-30T08:27:22;8.16;100.04
47861;HTU21D;33620;52.340;5.984;2024-01-30T08:29:47;8.24;99.99
47861;HTU21D;33620;52.340;5.984;2024-01-30T08:32:12;8.33;99.74
47861;HTU21D;33620;52.340;5.984;2024-01-30T08:34:38;8.43;99.67
47861;HTU21D;33620;52.340;5.984;2024-01-30T08:37:03;8.50;99.45
47861;HTU21D;33620;52.340;5.984;2024-01-30T08:39:29;8.59;99.17
47861;HTU21D;33620;52.340;5.984;2024-01-30T08:41:54;8.65;98.90
47861;HTU21D;33620;52.340;5.984;2024-01-30T08:44:20;8.73;98.50
47861;HTU21D;33620;52.340;5.984;2024-01-30T08:46:45;8.77;98.16
47861;HTU21D;33620;52.340;5.984;2024-01-30T08:49:11;8.82;98.06
47861;HTU21D;33620;52.340;5.984;2024-01-30T08:51:38;8.93;98.22
47861;HTU21D;33620;52.340;5.984;2024-01-30T08:54:04;9.05;97.94
47861;HTU21D;33620;52.340;5.984;2024-01-30T08:56:29;9.10;97.70
47861;HTU21D;33620;52.340;5.984;2024-01-30T08:58:55;9.18;97.27
47861;HTU21D;33620;52.340;5.984;2024-01-30T09:01:20;9.22;97.00
47861;HTU21D;33620;52.340;5.984;2024-01-30T09:03:45;9.25;97.02
47861;HTU21D;33620;52.340;5.984;2024-01-30T09:06:12;9.31;96.91
47861;HTU21D;33620;52.340;5.984;2024-01-30T09:08:38;9.35;96.91
47861;HTU21D;33620;52.340;5.984;2024-01-30T09:11:11;9.44;97.06
47861;HTU21D;33620;52.340;5.984;2024-01-30T09:13:37;9.53;96.83
47861;HTU21D;33620;52.340;5.984;2024-01-30T09:16:03;9.57;96.57
47861;HTU21D;33620;52.340;5.984;2024-01-30T09:18:28;9.64;96.29
47861;HTU21D;33620;52.340;5.984;2024-01-30T09:20:54;9.70;95.97
47861;HTU21D;33620;52.340;5.984;2024-01-30T09:23:19;9.75;95.76
47861;HTU21D;33620;52.340;5.984;2024-01-30T09:25:45;9.78;95.65
47861;HTU21D;33620;52.340;5.984;2024-01-30T09:28:10;9.82;95.56
47861;HTU21D;33620;52.340;5.984;2024-01-30T09:30:35;9.85;95.52
47861;HTU21D;33620;52.340;5.984;2024-01-30T09:33:01;9.88;95.65
47861;HTU21D;33620;52.340;5.984;2024-01-30T09:35:26;9.94;95.46
47861;HTU21D;33620;52.340;5.984;2024-01-30T09:37:52;9.97;95.46
47861;HTU21D;33620;52.340;5.984;2024-01-30T09:40:18;10.03;95.53
47861;HTU21D;33620;52.340;5.984;2024-01-30T09:42:46;10.11;95.05
47861;HTU21D;33620;52.340;5.984;2024-01-30T09:45:13;10.15;95.20
47861;HTU21D;33620;52.340;5.984;2024-01-30T09:47:43;10.19;94.89
47861;HTU21D;33620;52.340;5.984;2024-01-30T09:50:11;10.26;94.75
47861;HTU21D;33620;52.340;5.984;2024-01-30T09:52:36;10.27;94.53
47861;HTU21D;33620;52.340;5.984;2024-01-30T09:55:03;10.34;94.62
47861;HTU21D;33620;52.340;5.984;2024-01-30T09:57:28;10.49;94.08
47861;HTU21D;33620;52.340;5.984;2024-01-30T09:59:54;10.53;94.00
47861;HTU21D;33620;52.340;5.984;2024-01-30T10:02:20;10.53;93.78
47861;HTU21D;33620;52.340;5.984;2024-01-30T10:04:48;10.58;93.32
47861;HTU21D;33620;52.340;5.984;2024-01-30T10:07:14;10.62;92.96
47861;HTU21D;33620;52.340;5.984;2024-01-30T10:09:40;10.65;92.85
47861;HTU21D;33620;52.340;5.984;2024-01-30T10:12:06;10.68;92.57
47861;HTU21D;33620;52.340;5.984;2024-01-30T10:14:31;10.69;92.80
47861;HTU21D;33620;52.340;5.984;2024-01-30T10:16:57;10.68;92.77
47861;HTU21D;33620;52.340;5.984;2024-01-30T10:19:23;10.69;92.66
47861;HTU21D;33620;52.340;5.984;2024-01-30T10:21:48;10.69;92.51
47861;HTU21D;33620;52.340;5.984;2024-01-30T10:24:14;10.72;92.07
47861;HTU21D;33620;52.340;5.984;2024-01-30T10:26:39;10.73;92.03
47861;HTU21D;33620;52.340;5.984;2024-01-30T10:29:05;10.71;91.89
47861;HTU21D;33620;52.340;5.984;2024-01-30T10:31:30;10.70;91.97
47861;HTU21D;33620;52.340;5.984;2024-01-30T10:33:56;10.70;91.85
47861;HTU21D;33620;52.340;5.984;2024-01-30T10:36:28;10.69;91.65
47861;HTU21D;33620;52.340;5.984;2024-01-30T10:38:55;10.69;91.69
47861;HTU21D;33620;52.340;5.984;2024-01-30T10:41:26;10.73;91.60
47861;HTU21D;33620;52.340;5.984;2024-01-30T10:44:02;10.75;91.64
47861;HTU21D;33620;52.340;5.984;2024-01-30T10:46:33;10.73;91.80
47861;HTU21D;33620;52.340;5.984;2024-01-30T10:49:00;10.75;91.85
47861;HTU21D;33620;52.340;5.984;2024-01-30T10:51:28;10.74;91.53
47861;HTU21D;33620;52.340;5.984;2024-01-30T10:53:55;10.75;91.21
47861;HTU21D;33620;52.340;5.984;2024-01-30T10:56:21;10.79;91.16
47861;HTU21D;33620;52.340;5.984;2024-01-30T10:58:51;10.80;91.05
47861;HTU21D;33620;52.340;5.984;2024-01-30T11:01:21;10.77;91.34
47861;HTU21D;33620;52.340;5.984;2024-01-30T11:03:50;10.79;91.34
47861;HTU21D;33620;52.340;5.984;2024-01-30T11:06:16;10.81;91.25
47861;HTU21D;33620;52.340;5.984;2024-01-30T11:08:44;10.82;91.24
47861;HTU21D;33620;52.340;5.984;2024-01-30T11:11:10;10.83;91.08
47861;HTU21D;33620;52.340;5.984;2024-01-30T11:13:35;10.86;90.25
47861;HTU21D;33620;52.340;5.984;2024-01-30T11:16:04;10.90;89.80
47861;HTU21D;33620;52.340;5.984;2024-01-30T11:18:31;10.94;89.68
47861;HTU21D;33620;52.340;5.984;2024-01-30T11:20:58;10.95;89.36
47861;HTU21D;33620;52.340;5.984;2024-01-30T11:23:23;11.01;89.19
47861;HTU21D;33620;52.340;5.984;2024-01-30T11:25:52;10.96;88.73
47861;HTU21D;33620;52.340;5.984;2024-01-30T11:28:18;11.01;88.66
47861;HTU21D;33620;52.340;5.984;2024-01-30T11:30:44;11.07;88.69
47861;HTU21D;33620;52.340;5.984;2024-01-30T11:33:11;11.09;88.44
47861;HTU21D;33620;52.340;5.984;2024-01-30T11:35:43;11.13;87.96
47861;HTU21D;33620;52.340;5.984;2024-01-30T11:38:10;11.15;87.48
47861;HTU21D;33620;52.340;5.984;2024-01-30T11:40:37;11.17;87.35
47861;HTU21D;33620;52.340;5.984;2024-01-30T11:43:05;11.22;86.66
47861;HTU21D;33620;52.340;5.984;2024-01-30T11:45:31;11.31;86.85
47861;HTU21D;33620;52.340;5.984;2024-01-30T11:47:57;11.31;85.61
47861;HTU21D;33620;52.340;5.984;2024-01-30T11:50:24;11.32;85.10
47861;HTU21D;33620;52.340;5.984;2024-01-30T11:52:50;11.32;84.68
47861;HTU21D;33620;52.340;5.984;2024-01-30T11:55:15;11.31;84.00
47861;HTU21D;33620;52.340;5.984;2024-01-30T11:57:41;11.34;83.94
47861;HTU21D;33620;52.340;5.984;2024-01-30T12:00:14;11.34;83.88
47861;HTU21D;33620;52.340;5.984;2024-01-30T12:02:40;11.36;83.31
47861;HTU21D;33620;52.340;5.984;2024-01-30T12:05:06;11.40;82.96
47861;HTU21D;33620;52.340;5.984;2024-01-30T12:07:33;11.41;82.25
47861;HTU21D;33620;52.340;5.984;2024-01-30T12:09:58;11.49;82.66
47861;HTU21D;33620;52.340;5.984;2024-01-30T12:12:25;11.44;81.04
47861;HTU21D;33620;52.340;5.984;2024-01-30T12:14:51;11.49;81.56
47861;HTU21D;33620;52.340;5.984;2024-01-30T12:17:33;11.49;81.19
47861;HTU21D;33620;52.340;5.984;2024-01-30T12:22:43;11.45;81.91
47861;HTU21D;33620;52.340;5.984;2024-01-30T12:25:13;11.42;81.83
47861;HTU21D;33620;52.340;5.984;2024-01-30T12:27:39;11.34;80.10
47861;HTU21D;33620;52.340;5.984;2024-01-30T12:30:09;11.36;79.73
47861;HTU21D;33620;52.340;5.984;2024-01-30T12:32:40;11.34;79.72
47861;HTU21D;33620;52.340;5.984;2024-01-30T12:35:19;11.29;78.58
47861;HTU21D;33620;52.340;5.984;2024-01-30T12:37:46;11.24;76.63
47861;HTU21D;33620;52.340;5.984;2024-01-30T12:40:13;11.16;76.74
47861;HTU21D;33620;52.340;5.984;2024-01-30T12:42:40;11.17;77.47
47861;HTU21D;33620;52.340;5.984;2024-01-30T12:45:07;11.13;77.50
47861;HTU21D;33620;52.340;5.984;2024-01-30T12:47:32;11.01;78.25
47861;HTU21D;33620;52.340;5.984;2024-01-30T12:49:58;10.99;78.40
47861;HTU21D;33620;52.340;5.984;2024-01-30T12:52:23;10.89;78.90
47861;HTU21D;33620;52.340;5.984;2024-01-30T12:54:49;10.87;79.16
47861;HTU21D;33620;52.340;5.984;2024-01-30T12:57:15;10.87;79.47
47861;HTU21D;33620;52.340;5.984;2024-01-30T12:59:41;10.79;79.09
47861;HTU21D;33620;52.340;5.984;2024-01-30T13:02:07;10.69;79.04
47861;HTU21D;33620;52.340;5.984;2024-01-30T13:04:32;10.68;79.37
47861;HTU21D;33620;52.340;5.984;2024-01-30T13:06:58;10.65;79.91
47861;HTU21D;33620;52.340;5.984;2024-01-30T13:09:23;10.64;79.98
47861;HTU21D;33620;52.340;5.984;2024-01-30T13:11:49;10.58;80.11
47861;HTU21D;33620;52.340;5.984;2024-01-30T13:14:16;10.44;80.81
47861;HTU21D;33620;52.340;5.984;2024-01-30T13:16:42;10.35;82.45
47861;HTU21D;33620;52.340;5.984;2024-01-30T13:19:07;10.12;84.37
47861;HTU21D;33620;52.340;5.984;2024-01-30T13:21:32;9.96;84.94
47861;HTU21D;33620;52.340;5.984;2024-01-30T13:23:58;9.99;84.72
47861;HTU21D;33620;52.340;5.984;2024-01-30T13:26:23;10.03;83.72
47861;HTU21D;33620;52.340;5.984;2024-01-30T13:28:48;10.06;83.02
47861;HTU21D;33620;52.340;5.984;2024-01-30T13:31:14;10.09;83.05
47861;HTU21D;33620;52.340;5.984;2024-01-30T13:33:40;10.09;82.37
47861;HTU21D;33620;52.340;5.984;2024-01-30T13:36:06;10.07;82.70
47861;HTU21D;33620;52.340;5.984;2024-01-30T13:38:32;10.06;82.49
47861;HTU21D;33620;52.340;5.984;2024-01-30T13:40:58;10.05;82.84
47861;HTU21D;33620;52.340;5.984;2024-01-30T13:43:23;10.04;83.14
47861;HTU21D;33620;52.340;5.984;2024-01-30T13:45:48;9.98;83.57
47861;HTU21D;33620;52.340;5.984;2024-01-30T13:48:14;9.92;84.22
47861;HTU21D;33620;52.340;5.984;2024-01-30T13:50:39;9.93;84.48
47861;HTU21D;33620;52.340;5.984;2024-01-30T13:53:04;9.97;84.32
47861;HTU21D;33620;52.340;5.984;2024-01-30T13:55:30;9.95;84.39
47861;HTU21D;33620;52.340;5.984;2024-01-30T13:57:55;9.91;84.11
47861;HTU21D;33620;52.340;5.984;2024-01-30T14:00:21;9.99;83.97
47861;HTU21D;33620;52.340;5.984;2024-01-30T14:02:48;9.91;83.48
47861;HTU21D;33620;52.340;5.984;2024-01-30T14:05:14;9.93;83.91
47861;HTU21D;33620;52.340;5.984;2024-01-30T14:07:40;9.89;84.05
47861;HTU21D;33620;52.340;5.984;2024-01-30T14:10:09;9.76;85.03
47861;HTU21D;33620;52.340;5.984;2024-01-30T14:12:36;9.75;85.50
47861;HTU21D;33620;52.340;5.984;2024-01-30T14:15:01;9.66;86.03
47861;HTU21D;33620;52.340;5.984;2024-01-30T14:17:27;9.62;86.63
47861;HTU21D;33620;52.340;5.984;2024-01-30T14:19:53;9.50;87.19
47861;HTU21D;33620;52.340;5.984;2024-01-30T14:22:18;9.54;87.32
47861;HTU21D;33620;52.340;5.984;2024-01-30T14:24:43;9.55;87.37
47861;HTU21D;33620;52.340;5.984;2024-01-30T14:27:09;9.44;87.70
47861;HTU21D;33620;52.340;5.984;2024-01-30T14:29:35;9.42;88.14
47861;HTU21D;33620;52.340;5.984;2024-01-30T14:32:00;9.48;88.24
47861;HTU21D;33620;52.340;5.984;2024-01-30T14:34:26;9.32;89.86
47861;HTU21D;33620;52.340;5.984;2024-01-30T14:36:52;9.27;90.61
47861;HTU21D;33620;52.340;5.984;2024-01-30T14:39:18;9.26;91.05
47861;HTU21D;33620;52.340;5.984;2024-01-30T14:41:43;9.23;91.71
47861;HTU21D;33620;52.340;5.984;2024-01-30T14:44:09;9.11;92.91
47861;HTU21D;33620;52.340;5.984;2024-01-30T14:46:35;9.07;93.63
47861;HTU21D;33620;52.340;5.984;2024-01-30T14:49:00;9.09;93.72
47861;HTU21D;33620;52.340;5.984;2024-01-30T14:51:28;8.97;94.33
47861;HTU21D;33620;52.340;5.984;2024-01-30T14:53:54;9.03;94.19
47861;HTU21D;33620;52.340;5.984;2024-01-30T14:56:20;9.07;94.17
47861;HTU21D;33620;52.340;5.984;2024-01-30T14:58:46;9.11;94.04
47861;HTU21D;33620;52.340;5.984;2024-01-30T15:01:11;9.10;93.86
47861;HTU21D;33620;52.340;5.984;2024-01-30T15:03:37;9.09;93.90
47861;HTU21D;33620;52.340;5.984;2024-01-30T15:06:02;8.96;93.47
47861;HTU21D;33620;52.340;5.984;2024-01-30T15:08:30;9.00;93.61
47861;HTU21D;33620;52.340;5.984;2024-01-30T15:10:55;8.98;93.70
47861;HTU21D;33620;52.340;5.984;2024-01-30T15:13:22;8.90;94.09
47861;HTU21D;33620;52.340;5.984;2024-01-30T15:15:47;8.91;94.20
47861;HTU21D;33620;52.340;5.984;2024-01-30T15:18:13;8.86;94.49
47861;HTU21D;33620;52.340;5.984;2024-01-30T15:20:38;8.80;94.91
47861;HTU21D;33620;52.340;5.984;2024-01-30T15:23:03;8.79;95.30